createdAt,value
2019-01-28T00:02:07.488Z,100.00
2019-01-28T00:04:38.101Z,100.00
2019-01-28T00:07:08.624Z,100.00
2019-01-28T00:09:39.197Z,100.00
2019-01-28T00:12:09.722Z,100.00
2019-01-28T00:14:40.251Z,100.00
2019-01-28T00:17:10.806Z,100.00
2019-01-28T00:19:41.344Z,100.00
2019-01-28T00:22:11.864Z,100.00
2019-01-28T00:24:42.417Z,100.00
2019-01-28T00:27:12.962Z,100.00
2019-01-28T00:29:45.289Z,100.00
2019-01-28T00:32:15.792Z,100.00
2019-01-28T00:34:46.347Z,100.00
2019-01-28T00:37:16.882Z,100.00
2019-01-28T00:39:47.479Z,100.00
2019-01-28T00:42:18.029Z,100.00
2019-01-28T00:44:48.545Z,100.00
2019-01-28T00:47:19.110Z,100.00
2019-01-28T00:49:49.710Z,100.00
2019-01-28T00:52:20.255Z,100.00
2019-01-28T00:54:50.783Z,100.00
2019-01-28T00:57:21.319Z,100.00
2019-01-28T00:59:51.854Z,100.00
2019-01-28T01:02:22.395Z,100.00
2019-01-28T01:04:52.997Z,100.00
2019-01-28T01:07:23.891Z,100.00
2019-01-28T01:09:54.401Z,100.00
2019-01-28T01:12:24.959Z,100.00
2019-01-28T01:14:55.529Z,100.00
2019-01-28T01:17:26.137Z,100.00
2019-01-28T01:19:56.644Z,100.00
2019-01-28T01:22:27.212Z,100.00
2019-01-28T01:24:57.743Z,100.00
2019-01-28T01:27:28.320Z,100.00
2019-01-28T01:29:58.852Z,100.00
2019-01-28T01:32:29.386Z,100.00
2019-01-28T01:34:59.966Z,100.00
2019-01-28T01:37:30.480Z,100.00
2019-01-28T01:40:01.044Z,100.00
2019-01-28T01:42:31.602Z,100.00
2019-01-28T01:45:02.172Z,100.00
2019-01-28T01:47:32.739Z,100.00
2019-01-28T01:50:03.289Z,100.00
2019-01-28T01:52:33.835Z,100.00
2019-01-28T01:55:04.891Z,100.00
2019-01-28T01:57:35.471Z,100.00
2019-01-28T02:00:10.762Z,100.00
2019-01-28T02:02:41.308Z,100.00
2019-01-28T02:05:11.939Z,100.00
2019-01-28T02:07:42.547Z,100.00
2019-01-28T02:10:16.875Z,100.00
2019-01-28T02:12:47.436Z,100.00
2019-01-28T02:15:19.978Z,100.00
2019-01-28T02:17:50.545Z,100.00
2019-01-28T02:20:21.197Z,100.00
2019-01-28T02:22:51.770Z,100.00
2019-01-28T02:25:22.301Z,100.00
2019-01-28T02:27:56.054Z,100.00
2019-01-28T02:30:26.671Z,100.00
2019-01-28T02:32:57.177Z,100.00
2019-01-28T02:35:27.763Z,100.00
2019-01-28T02:37:58.247Z,100.00
2019-01-28T02:40:29.786Z,100.00
2019-01-28T02:43:00.331Z,100.00
2019-01-28T02:45:30.865Z,100.00
2019-01-28T02:48:01.413Z,100.00
2019-01-28T02:50:31.935Z,100.00
2019-01-28T02:53:02.615Z,100.00
2019-01-28T02:55:33.182Z,100.00
2019-01-28T02:58:03.746Z,100.00
2019-01-28T03:00:34.392Z,100.00
2019-01-28T03:03:05.022Z,100.00
2019-01-28T03:05:35.573Z,100.00
2019-01-28T03:08:06.105Z,100.00
2019-01-28T03:10:38.191Z,100.00
2019-01-28T03:13:08.695Z,100.00
2019-01-28T03:15:39.238Z,100.00
2019-01-28T03:18:11.232Z,100.00
2019-01-28T03:20:41.819Z,100.00
2019-01-28T03:23:13.433Z,100.00
2019-01-28T03:25:44.607Z,100.00
2019-01-28T03:28:15.176Z,100.00
2019-01-28T03:30:45.753Z,100.00
2019-01-28T03:33:16.369Z,100.00
2019-01-28T03:35:47.860Z,100.00
2019-01-28T03:38:22.066Z,100.00
2019-01-28T03:40:52.643Z,100.00
2019-01-28T03:43:23.853Z,100.00
2019-01-28T03:45:54.983Z,100.00
2019-01-28T03:48:25.510Z,100.00
2019-01-28T03:50:56.156Z,100.00
2019-01-28T03:53:26.769Z,100.00
2019-01-28T03:55:57.430Z,100.00
2019-01-28T03:58:27.972Z,100.00
2019-01-28T04:00:59.556Z,100.00
2019-01-28T04:03:30.181Z,100.00
2019-01-28T04:06:00.800Z,100.00
2019-01-28T04:08:31.311Z,100.00
2019-01-28T04:11:01.890Z,100.00
2019-01-28T04:13:33.076Z,100.00
2019-01-28T04:16:03.648Z,100.00
2019-01-28T04:18:34.234Z,100.00
2019-01-28T04:21:04.779Z,100.00
2019-01-28T04:23:35.321Z,100.00
2019-01-28T04:26:06.031Z,100.00
2019-01-28T04:28:36.669Z,100.00
2019-01-28T04:31:07.847Z,100.00
2019-01-28T04:33:38.877Z,100.00
2019-01-28T04:36:10.101Z,100.00
2019-01-28T04:38:41.253Z,100.00
2019-01-28T04:41:11.801Z,100.00
2019-01-28T04:43:43.108Z,100.00
2019-01-28T04:46:13.632Z,100.00
2019-01-28T04:48:44.230Z,100.00
2019-01-28T04:51:14.851Z,100.00
2019-01-28T04:53:47.381Z,100.00
2019-01-28T04:56:18.059Z,100.00
2019-01-28T04:58:49.733Z,100.00
2019-01-28T05:01:20.662Z,100.00
2019-01-28T05:03:51.209Z,100.00
2019-01-28T05:06:21.756Z,100.00
2019-01-28T05:08:52.295Z,100.00
2019-01-28T05:11:22.850Z,100.00
2019-01-28T05:13:54.010Z,100.00
2019-01-28T05:16:24.569Z,100.00
2019-01-28T05:18:55.115Z,100.00
2019-01-28T05:21:25.642Z,100.00
2019-01-28T05:23:56.213Z,100.00
2019-01-28T05:26:26.815Z,100.00
2019-01-28T05:28:58.076Z,100.00
2019-01-28T05:31:28.636Z,100.00
2019-01-28T05:33:59.160Z,100.00
2019-01-28T05:36:29.696Z,100.00
2019-01-28T05:39:00.231Z,100.00
2019-01-28T05:41:32.144Z,100.00
2019-01-28T05:44:02.646Z,100.00
2019-01-28T05:46:33.196Z,100.00
2019-01-28T05:49:03.754Z,100.00
2019-01-28T05:51:34.332Z,100.00
2019-01-28T05:54:04.865Z,100.00
2019-01-28T05:56:35.414Z,100.00
2019-01-28T05:59:05.922Z,100.00
2019-01-28T06:01:36.506Z,100.00
2019-01-28T06:04:07.530Z,100.00
2019-01-28T06:06:39.143Z,100.00
2019-01-28T06:09:11.080Z,100.00
2019-01-28T06:11:41.681Z,100.00
2019-01-28T06:14:12.190Z,100.00
2019-01-28T06:16:42.777Z,100.00
2019-01-28T06:19:13.573Z,100.00
2019-01-28T06:21:44.194Z,100.00
2019-01-28T06:24:14.750Z,100.00
2019-01-28T06:26:45.297Z,100.00
2019-01-28T06:29:15.872Z,100.00
2019-01-28T06:31:46.447Z,100.00
2019-01-28T06:34:16.967Z,100.00
2019-01-28T06:36:47.520Z,100.00
2019-01-28T06:39:18.048Z,100.00
2019-01-28T06:41:48.673Z,100.00
2019-01-28T06:44:19.251Z,100.00
2019-01-28T06:46:49.947Z,100.00
2019-01-28T06:49:20.535Z,100.00
2019-01-28T06:51:52.212Z,100.00
2019-01-28T06:54:22.796Z,100.00
2019-01-28T06:56:53.358Z,100.00
2019-01-28T06:59:23.876Z,100.00
2019-01-28T07:01:54.460Z,100.00
2019-01-28T07:04:25.020Z,100.00
2019-01-28T07:06:55.543Z,100.00
2019-01-28T07:09:26.069Z,100.00
2019-01-28T07:11:56.597Z,100.00
2019-01-28T07:14:27.149Z,100.00
2019-01-28T07:16:57.720Z,100.00
2019-01-28T07:19:30.008Z,100.00
2019-01-28T07:22:00.632Z,100.00
2019-01-28T07:24:31.211Z,100.00
2019-01-28T07:27:01.772Z,100.00
2019-01-28T07:29:32.327Z,100.00
2019-01-28T07:32:02.899Z,100.00
2019-01-28T07:34:33.454Z,100.00
2019-01-28T07:37:04.799Z,100.00
2019-01-28T07:39:35.373Z,100.00
2019-01-28T07:42:06.045Z,100.00
2019-01-28T07:44:36.559Z,100.00
2019-01-28T07:47:07.147Z,100.00
2019-01-28T07:49:37.721Z,100.00
2019-01-28T07:52:09.710Z,100.00
2019-01-28T07:54:40.252Z,100.00
2019-01-28T07:57:11.386Z,100.00
2019-01-28T07:59:41.929Z,100.00
2019-01-28T08:02:12.546Z,100.00
2019-01-28T08:04:43.119Z,100.00
2019-01-28T08:07:14.348Z,100.00
2019-01-28T08:09:44.923Z,100.00
2019-01-28T08:12:15.535Z,100.00
2019-01-28T08:14:46.123Z,100.00
2019-01-28T08:17:16.717Z,100.00
2019-01-28T08:19:47.256Z,100.00
2019-01-28T08:22:17.782Z,100.00
2019-01-28T08:24:48.355Z,100.00
2019-01-28T08:27:18.984Z,100.00
2019-01-28T08:29:49.537Z,100.00
2019-01-28T08:32:20.125Z,100.00
2019-01-28T08:34:51.832Z,100.00
2019-01-28T08:37:22.414Z,100.00
2019-01-28T08:39:53.018Z,100.00
2019-01-28T08:42:23.571Z,100.00
2019-01-28T08:44:54.097Z,100.00
2019-01-28T08:47:24.659Z,100.00
2019-01-28T08:49:55.225Z,100.00
2019-01-28T08:52:25.942Z,100.00
2019-01-28T08:54:57.452Z,100.00
2019-01-28T08:57:30.512Z,100.00
2019-01-28T09:00:01.020Z,100.00
2019-01-28T09:02:31.588Z,100.00
2019-01-28T09:05:02.100Z,100.00
2019-01-28T09:07:32.697Z,100.00
2019-01-28T09:10:04.792Z,100.00
2019-01-28T09:12:35.393Z,100.00
2019-01-28T09:15:07.253Z,100.00
2019-01-28T09:17:37.839Z,100.00
2019-01-28T09:20:12.609Z,100.00
2019-01-28T09:22:43.223Z,100.00
2019-01-28T09:25:14.684Z,100.00
2019-01-28T09:27:45.289Z,100.00
2019-01-28T09:30:23.912Z,100.00
2019-01-28T09:32:54.594Z,100.00
2019-01-28T09:35:25.423Z,100.00
2019-01-28T09:37:56.107Z,100.00
2019-01-28T09:40:29.061Z,100.00
2019-01-28T09:42:59.675Z,100.00
2019-01-28T09:45:33.603Z,100.00
2019-01-28T09:48:04.338Z,100.00
2019-01-28T09:50:34.927Z,100.00
2019-01-28T09:53:05.662Z,100.00
2019-01-28T09:55:36.198Z,100.00
2019-01-28T09:58:07.565Z,100.00
2019-01-28T10:00:45.402Z,100.00
2019-01-28T10:03:15.964Z,100.00
2019-01-28T10:05:46.517Z,100.00
2019-01-28T10:08:18.815Z,100.00
2019-01-28T10:10:49.447Z,100.00
2019-01-28T10:13:20.090Z,100.00
2019-01-28T10:15:50.694Z,100.00
2019-01-28T10:18:25.044Z,100.00
2019-01-28T10:20:55.629Z,100.00
2019-01-28T10:23:26.265Z,100.00
2019-01-28T10:25:57.872Z,100.00
2019-01-28T10:28:30.724Z,100.00
2019-01-28T10:31:01.316Z,100.00
2019-01-28T10:33:31.909Z,100.00
2019-01-28T10:36:02.444Z,100.00
2019-01-28T10:38:32.971Z,100.00
2019-01-28T10:41:03.465Z,100.00
2019-01-28T10:43:34.057Z,100.00
2019-01-28T10:46:04.568Z,100.00
2019-01-28T10:48:35.207Z,100.00
2019-01-28T10:51:06.165Z,100.00
2019-01-28T10:53:36.709Z,100.00
2019-01-28T10:56:07.879Z,100.00
2019-01-28T10:58:38.412Z,100.00
2019-01-28T11:01:08.944Z,100.00
2019-01-28T11:03:39.507Z,100.00
2019-01-28T11:06:10.053Z,100.00
2019-01-28T11:08:40.606Z,100.00
2019-01-28T11:11:11.077Z,100.00
2019-01-28T11:13:41.671Z,100.00
2019-01-28T11:16:12.341Z,100.00
2019-01-28T11:18:43.045Z,100.00
2019-01-28T11:21:13.591Z,100.00
2019-01-28T11:23:44.202Z,100.00
2019-01-28T11:26:14.743Z,100.00
2019-01-28T11:28:45.413Z,100.00
2019-01-28T11:31:16.004Z,100.00
2019-01-28T11:33:46.658Z,100.00
2019-01-28T11:36:17.320Z,100.00
2019-01-28T11:38:49.495Z,100.00
2019-01-28T11:41:20.075Z,100.00
2019-01-28T11:43:50.684Z,100.00
2019-01-28T11:46:21.265Z,100.00
2019-01-28T11:48:51.863Z,100.00
2019-01-28T11:51:22.425Z,100.00
2019-01-28T11:53:52.972Z,99.70
2019-01-28T11:56:23.510Z,100.00
2019-01-28T11:58:54.055Z,100.00
2019-01-28T12:01:28.221Z,99.55
2019-01-28T12:03:58.884Z,99.68
2019-01-28T12:06:29.491Z,99.54
2019-01-28T12:09:00.049Z,99.45
2019-01-28T12:11:30.697Z,100.00
2019-01-28T12:14:01.211Z,100.00
2019-01-28T12:16:31.843Z,99.97
2019-01-28T12:19:02.353Z,99.87
2019-01-28T12:21:32.975Z,100.00
2019-01-28T12:24:03.500Z,100.00
2019-01-28T12:26:34.061Z,100.00
2019-01-28T12:29:05.228Z,99.70
2019-01-28T12:31:36.862Z,99.94
2019-01-28T12:34:07.492Z,99.87
2019-01-28T12:36:38.070Z,99.41
2019-01-28T12:39:10.094Z,100.00
2019-01-28T12:41:40.718Z,99.62
2019-01-28T12:44:11.225Z,99.24
2019-01-28T12:46:41.783Z,99.10
2019-01-28T12:49:12.281Z,99.73
2019-01-28T12:51:45.161Z,99.98
2019-01-28T12:54:15.751Z,99.66
2019-01-28T12:56:46.231Z,98.98
2019-01-28T12:59:16.766Z,98.62
2019-01-28T13:01:47.314Z,98.87
2019-01-28T13:04:17.879Z,99.40
2019-01-28T13:06:48.401Z,99.94
2019-01-28T13:09:18.983Z,99.70
2019-01-28T13:11:49.516Z,99.23
2019-01-28T13:14:20.117Z,99.32
2019-01-28T13:16:50.642Z,99.54
2019-01-28T13:19:21.208Z,99.22
2019-01-28T13:21:51.716Z,98.22
2019-01-28T13:24:22.284Z,98.66
2019-01-28T13:26:52.831Z,98.74
2019-01-28T13:29:23.373Z,98.40
2019-01-28T13:31:53.894Z,97.44
2019-01-28T13:34:24.482Z,96.60
2019-01-28T13:36:55.033Z,96.41
2019-01-28T13:39:25.579Z,96.97
2019-01-28T13:41:56.133Z,97.83
2019-01-28T13:44:26.648Z,97.66
2019-01-28T13:46:58.012Z,97.42
2019-01-28T13:49:28.581Z,97.80
2019-01-28T13:51:59.137Z,98.09
2019-01-28T13:54:29.708Z,97.48
2019-01-28T13:57:00.218Z,97.67
2019-01-28T13:59:30.791Z,97.70
2019-01-28T14:02:04.419Z,97.87
2019-01-28T14:04:36.336Z,98.75
2019-01-28T14:07:07.018Z,98.84
2019-01-28T14:09:37.529Z,98.14
2019-01-28T14:12:08.054Z,98.75
2019-01-28T14:14:38.619Z,98.97
2019-01-28T14:17:09.158Z,99.28
2019-01-28T14:19:46.332Z,98.93
2019-01-28T14:22:11.978Z,99.67
2019-01-28T14:24:42.537Z,99.96
2019-01-28T14:27:13.055Z,99.66
2019-01-28T14:29:49.600Z,99.92
2019-01-28T14:32:21.508Z,100.00
2019-01-28T14:34:52.019Z,100.00
2019-01-28T14:37:23.504Z,100.00
2019-01-28T14:39:54.035Z,100.00
2019-01-28T14:42:24.684Z,100.00
2019-01-28T14:44:55.257Z,100.00
2019-01-28T14:47:25.772Z,100.00
2019-01-28T14:49:56.261Z,100.00
2019-01-28T14:52:26.820Z,100.00
2019-01-28T14:54:57.451Z,100.00
2019-01-28T14:57:28.028Z,99.82
2019-01-28T14:59:58.573Z,99.38
2019-01-28T15:02:30.869Z,99.44
2019-01-28T15:05:01.422Z,99.81
2019-01-28T15:07:31.957Z,99.31
2019-01-28T15:10:02.551Z,98.33
2019-01-28T15:12:33.050Z,98.17
2019-01-28T15:15:03.596Z,98.85
2019-01-28T15:17:34.162Z,98.52
2019-01-28T15:20:05.391Z,96.94
2019-01-28T15:22:35.886Z,97.52
2019-01-28T15:25:07.551Z,97.24
2019-01-28T15:27:38.118Z,97.04
2019-01-28T15:30:14.000Z,97.58
2019-01-28T15:32:44.818Z,97.54
2019-01-28T15:35:15.524Z,97.71
2019-01-28T15:37:46.129Z,97.56
2019-01-28T15:40:21.286Z,97.66
2019-01-28T15:42:51.866Z,97.22
2019-01-28T15:45:31.342Z,95.04
2019-01-28T15:48:01.889Z,95.47
2019-01-28T15:50:32.449Z,95.91
2019-01-28T15:53:03.037Z,95.40
2019-01-28T15:55:36.740Z,94.79
2019-01-28T15:58:08.734Z,95.61
2019-01-28T16:00:40.460Z,93.96
2019-01-28T16:03:11.283Z,94.17
2019-01-28T16:05:42.908Z,94.45
2019-01-28T16:08:14.476Z,95.14
2019-01-28T16:10:44.986Z,95.38
2019-01-28T16:13:15.558Z,96.08
2019-01-28T16:15:49.335Z,95.75
2019-01-28T16:18:19.963Z,96.17
2019-01-28T16:20:50.447Z,96.51
2019-01-28T16:23:20.952Z,96.03
2019-01-28T16:25:51.533Z,96.45
2019-01-28T16:28:22.059Z,96.75
2019-01-28T16:30:52.637Z,95.92
2019-01-28T16:33:23.836Z,96.85
2019-01-28T16:35:54.551Z,97.79
2019-01-28T16:38:41.533Z,97.93
2019-01-28T16:41:12.142Z,97.49
2019-01-28T16:43:42.617Z,97.78
2019-01-28T16:46:13.236Z,98.12
2019-01-28T16:48:43.773Z,99.18
2019-01-28T16:51:14.689Z,99.03
2019-01-28T16:53:45.414Z,98.38
2019-01-28T16:56:16.371Z,97.51
2019-01-28T16:58:49.031Z,97.23
2019-01-28T17:01:20.020Z,97.92
2019-01-28T17:03:52.428Z,97.18
2019-01-28T17:06:22.998Z,97.69
2019-01-28T17:09:00.001Z,96.96
2019-01-28T17:11:34.633Z,97.26
2019-01-28T17:14:05.965Z,97.77
2019-01-28T17:16:37.618Z,98.02
2019-01-28T17:19:08.147Z,97.92
2019-01-28T17:21:38.701Z,96.96
2019-01-28T17:24:10.261Z,95.81
2019-01-28T17:26:42.950Z,95.96
2019-01-28T17:29:16.974Z,96.11
2019-01-28T17:31:47.590Z,96.78
2019-01-28T17:34:18.181Z,97.13
2019-01-28T17:36:48.752Z,98.02
2019-01-28T17:39:19.361Z,98.94
2019-01-28T17:41:50.987Z,98.79
2019-01-28T17:44:21.547Z,98.11
2019-01-28T17:46:52.093Z,98.05
2019-01-28T17:49:23.987Z,95.97
2019-01-28T17:51:54.546Z,95.20
2019-01-28T17:54:25.060Z,94.98
2019-01-28T17:56:55.616Z,94.12
2019-01-28T17:59:26.167Z,93.79
2019-01-28T18:01:56.713Z,93.71
2019-01-28T18:04:27.296Z,93.93
2019-01-28T18:06:57.828Z,93.37
2019-01-28T18:09:31.481Z,93.53
2019-01-28T18:12:02.006Z,94.61
2019-01-28T18:14:32.545Z,94.99
2019-01-28T18:17:03.156Z,94.64
2019-01-28T18:19:33.672Z,94.94
2019-01-28T18:22:04.256Z,95.22
2019-01-28T18:24:34.825Z,95.30
2019-01-28T18:27:09.728Z,95.57
2019-01-28T18:29:40.276Z,95.37
2019-01-28T18:32:10.820Z,95.63
2019-01-28T18:34:41.495Z,96.21
2019-01-28T18:37:12.166Z,96.60
2019-01-28T18:39:42.842Z,96.29
2019-01-28T18:42:13.404Z,96.54
2019-01-28T18:44:44.135Z,96.41
2019-01-28T18:47:14.669Z,96.72
2019-01-28T18:49:45.270Z,96.83
2019-01-28T18:52:15.838Z,96.75
2019-01-28T18:54:46.405Z,96.96
2019-01-28T18:57:16.952Z,96.52
2019-01-28T18:59:47.516Z,96.34
2019-01-28T19:02:18.087Z,95.88
2019-01-28T19:04:48.624Z,96.12
2019-01-28T19:07:44.228Z,96.35
2019-01-28T19:10:29.408Z,95.39
2019-01-28T19:13:06.926Z,95.07
2019-01-28T19:15:59.950Z,95.10
2019-01-28T19:18:38.858Z,95.11
2019-01-28T19:21:28.279Z,95.20
2019-01-28T19:24:01.453Z,94.82
2019-01-28T19:26:32.062Z,94.97
2019-01-28T19:29:02.650Z,95.32
2019-01-28T19:31:35.120Z,96.32
2019-01-28T19:34:05.895Z,96.00
2019-01-28T19:36:36.426Z,96.29
2019-01-28T19:39:09.749Z,96.23
2019-01-28T19:41:40.351Z,96.35
2019-01-28T19:44:10.905Z,96.96
2019-01-28T19:46:41.518Z,96.71
2019-01-28T19:49:12.108Z,96.77
2019-01-28T19:51:42.621Z,97.06
2019-01-28T19:54:13.217Z,97.03
2019-01-28T19:56:43.764Z,97.22
2019-01-28T19:59:14.396Z,97.00
2019-01-28T20:01:45.017Z,97.23
2019-01-28T20:04:15.578Z,96.56
2019-01-28T20:06:46.144Z,95.80
2019-01-28T20:09:16.749Z,95.25
2019-01-28T20:11:47.293Z,94.93
2019-01-28T20:14:17.775Z,94.96
2019-01-28T20:16:48.359Z,93.86
2019-01-28T20:19:18.937Z,94.10
2019-01-28T20:21:49.482Z,94.35
2019-01-28T20:24:20.058Z,93.90
2019-01-28T20:26:50.592Z,94.32
2019-01-28T20:29:21.232Z,94.71
2019-01-28T20:31:54.317Z,94.52
2019-01-28T20:34:24.870Z,95.22
2019-01-28T20:36:55.445Z,95.10
2019-01-28T20:39:25.966Z,95.36
2019-01-28T20:41:56.505Z,96.18
2019-01-28T20:44:27.102Z,96.01
2019-01-28T20:46:59.144Z,95.55
2019-01-28T20:49:29.680Z,95.83
2019-01-28T20:52:00.241Z,96.32
2019-01-28T20:54:30.854Z,96.46
2019-01-28T20:57:01.472Z,96.40
2019-01-28T20:59:31.955Z,96.08
2019-01-28T21:02:02.522Z,95.64
2019-01-28T21:04:33.192Z,95.34
2019-01-28T21:07:03.724Z,95.43
2019-01-28T21:09:37.013Z,95.68
2019-01-28T21:12:07.575Z,96.22
2019-01-28T21:14:38.125Z,96.90
2019-01-28T21:17:08.729Z,96.52
2019-01-28T21:19:39.306Z,95.25
2019-01-28T21:22:09.855Z,95.65
2019-01-28T21:24:40.513Z,95.69
2019-01-28T21:27:11.060Z,96.30
2019-01-28T21:29:41.661Z,96.62
2019-01-28T21:32:12.309Z,95.98
2019-01-28T21:34:42.829Z,95.95
2019-01-28T21:37:38.375Z,96.46
2019-01-28T21:40:10.116Z,96.88
2019-01-28T21:42:40.775Z,97.10
2019-01-28T21:45:12.002Z,97.17
2019-01-28T21:47:53.626Z,96.80
2019-01-28T21:50:26.103Z,96.48
2019-01-28T21:52:56.674Z,96.21
2019-01-28T21:55:27.236Z,96.57
2019-01-28T21:57:57.794Z,97.05
2019-01-28T22:00:30.180Z,97.12
2019-01-28T22:03:00.830Z,97.15
2019-01-28T22:05:32.473Z,97.05
2019-01-28T22:08:03.131Z,96.59
2019-01-28T22:10:33.653Z,95.86
2019-01-28T22:13:04.366Z,96.60
2019-01-28T22:15:34.926Z,97.21
2019-01-28T22:18:05.568Z,97.71
2019-01-28T22:20:36.157Z,97.81
2019-01-28T22:23:06.765Z,98.19
2019-01-28T22:25:37.303Z,97.51
2019-01-28T22:28:07.840Z,96.97
2019-01-28T22:30:38.402Z,96.95
2019-01-28T22:33:09.108Z,96.83
2019-01-28T22:35:39.589Z,97.04
2019-01-28T22:38:10.136Z,97.04
2019-01-28T22:40:40.690Z,97.12
2019-01-28T22:43:11.216Z,97.15
2019-01-28T22:45:41.790Z,97.29
2019-01-28T22:48:12.317Z,97.76
2019-01-28T22:50:42.916Z,98.08
2019-01-28T22:53:13.493Z,98.08
2019-01-28T22:55:44.011Z,98.53
2019-01-28T22:58:14.547Z,98.65
2019-01-28T23:00:53.496Z,98.88
2019-01-28T23:03:29.517Z,99.13
2019-01-28T23:06:00.077Z,99.25
2019-01-28T23:08:30.582Z,99.46
2019-01-28T23:11:01.124Z,99.34
2019-01-28T23:13:31.719Z,99.68
2019-01-28T23:16:02.230Z,99.76
2019-01-28T23:18:32.795Z,99.92
2019-01-28T23:21:03.309Z,100.00
2019-01-28T23:23:33.860Z,100.00
2019-01-28T23:26:04.615Z,100.00
2019-01-28T23:28:35.195Z,100.00
2019-01-28T23:31:06.693Z,100.00
2019-01-28T23:33:37.428Z,100.00
2019-01-28T23:36:08.000Z,100.00
2019-01-28T23:38:38.507Z,100.00
2019-01-28T23:41:09.065Z,100.00
2019-01-28T23:43:39.598Z,100.00
2019-01-28T23:46:10.100Z,100.00
2019-01-28T23:48:40.606Z,100.00
2019-01-28T23:51:11.145Z,100.00
2019-01-28T23:53:41.659Z,100.00
2019-01-28T23:56:12.235Z,100.00
2019-01-28T23:58:42.772Z,100.00
